createdAt,value
2023-05-10T00:01:18.621Z,11.76
2023-05-10T00:03:45.414Z,11.93
2023-05-10T00:06:12.167Z,11.79
2023-05-10T00:08:39.003Z,12.06
2023-05-10T00:11:05.709Z,11.99
2023-05-10T00:13:33.113Z,12.01
2023-05-10T00:15:59.790Z,12.14
2023-05-10T00:18:26.757Z,12.10
2023-05-10T00:20:53.469Z,12.21
2023-05-10T00:23:20.180Z,11.90
2023-05-10T00:25:46.951Z,11.91
2023-05-10T00:28:13.614Z,12.10
2023-05-10T00:30:40.330Z,11.92
2023-05-10T00:33:07.078Z,11.79
2023-05-10T00:35:33.941Z,11.93
2023-05-10T00:38:00.655Z,11.97
2023-05-10T00:40:27.593Z,11.87
2023-05-10T00:42:54.254Z,11.98
2023-05-10T00:45:21.006Z,11.71
2023-05-10T00:47:47.770Z,11.72
2023-05-10T00:50:15.717Z,11.68
2023-05-10T00:52:43.698Z,11.76
2023-05-10T00:55:12.418Z,11.78
2023-05-10T00:57:39.734Z,11.50
2023-05-10T01:00:07.040Z,11.58
2023-05-10T01:02:35.429Z,11.58
2023-05-10T01:05:04.754Z,11.38
2023-05-10T01:07:31.476Z,11.22
2023-05-10T01:09:58.756Z,11.45
2023-05-10T01:12:26.221Z,11.62
2023-05-10T01:14:53.791Z,11.63
2023-05-10T01:17:23.972Z,11.23
2023-05-10T01:19:50.951Z,11.49
2023-05-10T01:22:44.342Z,11.32
2023-05-10T01:25:36.706Z,11.24
2023-05-10T01:28:25.045Z,11.29
2023-05-10T01:31:19.480Z,11.17
2023-05-10T01:34:09.314Z,11.00
2023-05-10T01:36:52.064Z,11.28
2023-05-10T01:39:26.930Z,11.17
2023-05-10T01:42:10.665Z,11.39
2023-05-10T01:44:49.004Z,11.40
2023-05-10T01:47:21.279Z,11.23
2023-05-10T01:49:54.203Z,11.29
2023-05-10T01:52:27.077Z,11.46
2023-05-10T01:55:05.910Z,11.51
2023-05-10T01:57:36.412Z,11.38
2023-05-10T02:00:05.670Z,11.36
2023-05-10T02:02:40.101Z,11.38
2023-05-10T02:05:08.174Z,11.45
2023-05-10T02:07:38.389Z,11.48
2023-05-10T02:10:09.214Z,11.47
2023-05-10T02:12:37.956Z,11.56
2023-05-10T02:15:08.255Z,11.66
2023-05-10T02:17:37.979Z,11.67
2023-05-10T02:20:07.658Z,11.57
2023-05-10T02:22:35.942Z,11.56
2023-05-10T02:25:04.313Z,11.57
2023-05-10T02:27:31.682Z,11.57
2023-05-10T02:29:59.505Z,11.62
2023-05-10T02:32:28.664Z,11.60
2023-05-10T02:34:56.523Z,11.62
2023-05-10T02:37:23.852Z,11.67
2023-05-10T02:39:51.816Z,11.67
2023-05-10T02:42:23.718Z,11.66
2023-05-10T02:44:53.607Z,11.70
2023-05-10T02:47:20.571Z,11.72
2023-05-10T02:49:47.579Z,11.70
2023-05-10T02:52:17.971Z,11.56
2023-05-10T02:54:51.737Z,11.64
2023-05-10T02:57:26.004Z,11.53
2023-05-10T02:59:52.780Z,11.39
2023-05-10T03:02:19.433Z,11.47
2023-05-10T03:04:46.085Z,11.52
2023-05-10T03:07:12.800Z,11.52
2023-05-10T03:09:40.324Z,11.30
2023-05-10T03:12:22.104Z,11.18
2023-05-10T03:15:03.834Z,11.24
2023-05-10T03:17:38.444Z,11.28
2023-05-10T03:20:10.811Z,11.29
2023-05-10T03:22:41.907Z,11.40
2023-05-10T03:25:11.924Z,11.37
2023-05-10T03:27:41.931Z,11.27
2023-05-10T03:30:11.396Z,11.22
2023-05-10T03:32:38.575Z,11.29
2023-05-10T03:35:13.351Z,11.36
2023-05-10T03:37:40.274Z,11.26
2023-05-10T03:40:07.486Z,11.26
2023-05-10T03:42:34.249Z,11.20
2023-05-10T03:45:00.914Z,11.24
2023-05-10T03:47:27.622Z,11.25
2023-05-10T03:49:54.312Z,11.03
2023-05-10T03:52:20.943Z,11.04
2023-05-10T03:54:47.611Z,10.94
2023-05-10T03:57:14.201Z,10.95
2023-05-10T03:59:40.892Z,10.98
2023-05-10T04:02:07.535Z,10.98
2023-05-10T04:04:34.270Z,11.00
2023-05-10T04:07:00.841Z,11.06
2023-05-10T04:09:27.852Z,11.03
2023-05-10T04:11:54.431Z,10.95
2023-05-10T04:14:21.064Z,11.00
2023-05-10T04:16:47.760Z,10.98
2023-05-10T04:19:14.545Z,11.08
2023-05-10T04:21:41.252Z,11.08
2023-05-10T04:24:08.009Z,10.97
2023-05-10T04:26:34.606Z,11.05
2023-05-10T04:29:01.213Z,11.05
2023-05-10T04:31:28.917Z,11.10
2023-05-10T04:33:55.762Z,11.06
2023-05-10T04:36:22.487Z,11.10
2023-05-10T04:38:49.190Z,11.17
2023-05-10T04:41:15.831Z,11.15
2023-05-10T04:43:42.443Z,11.19
2023-05-10T04:46:09.127Z,11.31
2023-05-10T04:48:35.916Z,11.26
2023-05-10T04:51:04.506Z,11.23
2023-05-10T04:53:31.196Z,11.27
2023-05-10T04:55:57.833Z,11.26
2023-05-10T04:58:24.486Z,11.17
2023-05-10T05:00:51.185Z,11.08
2023-05-10T05:03:17.922Z,10.84
2023-05-10T05:05:45.637Z,10.65
2023-05-10T05:08:12.338Z,10.74
2023-05-10T05:10:38.957Z,10.98
2023-05-10T05:13:05.645Z,11.15
2023-05-10T05:15:32.378Z,11.18
2023-05-10T05:17:59.141Z,11.08
2023-05-10T05:20:25.791Z,11.30
2023-05-10T05:22:52.496Z,11.36
2023-05-10T05:25:19.210Z,11.53
2023-05-10T05:27:45.995Z,11.64
2023-05-10T05:30:13.542Z,11.67
2023-05-10T05:32:40.189Z,11.76
2023-05-10T05:35:07.162Z,11.70
2023-05-10T05:37:33.837Z,11.73
2023-05-10T05:40:02.418Z,11.64
2023-05-10T05:42:29.096Z,11.69
2023-05-10T05:44:55.790Z,11.43
2023-05-10T05:47:22.433Z,11.31
2023-05-10T05:49:49.177Z,11.51
2023-05-10T05:52:15.866Z,11.37
2023-05-10T05:54:42.515Z,11.32
2023-05-10T05:57:09.912Z,11.36
2023-05-10T05:59:36.668Z,11.13
2023-05-10T06:02:03.383Z,11.20
2023-05-10T06:04:30.088Z,11.20
2023-05-10T06:06:56.779Z,11.44
2023-05-10T06:09:25.520Z,11.48
2023-05-10T06:11:52.205Z,11.35
2023-05-10T06:14:21.525Z,11.26
2023-05-10T06:16:48.426Z,11.23
2023-05-10T06:19:15.209Z,11.19
2023-05-10T06:21:41.822Z,11.30
2023-05-10T06:24:08.482Z,11.58
2023-05-10T06:26:35.215Z,11.84
2023-05-10T06:29:02.341Z,12.13
2023-05-10T06:31:29.069Z,12.39
2023-05-10T06:33:56.812Z,12.41
2023-05-10T06:36:25.594Z,12.52
2023-05-10T06:38:52.252Z,12.65
2023-05-10T06:41:18.922Z,12.62
2023-05-10T06:43:45.665Z,12.93
2023-05-10T06:46:12.369Z,12.77
2023-05-10T06:48:39.074Z,12.64
2023-05-10T06:51:05.727Z,12.65
2023-05-10T06:53:32.319Z,12.47
2023-05-10T06:55:58.971Z,12.79
2023-05-10T06:58:25.688Z,13.16
2023-05-10T07:00:52.384Z,13.44
2023-05-10T07:03:19.099Z,13.35
2023-05-10T07:05:45.723Z,13.61
2023-05-10T07:08:12.434Z,13.27
2023-05-10T07:10:39.077Z,13.07
2023-05-10T07:13:05.845Z,13.27
2023-05-10T07:15:32.630Z,13.29
2023-05-10T07:17:59.486Z,13.46
2023-05-10T07:20:26.273Z,13.63
2023-05-10T07:22:53.011Z,14.18
2023-05-10T07:25:19.837Z,13.90
2023-05-10T07:27:46.992Z,14.18
2023-05-10T07:30:14.104Z,14.17
2023-05-10T07:32:42.725Z,14.49
2023-05-10T07:35:09.726Z,14.02
2023-05-10T07:37:36.919Z,14.42
2023-05-10T07:40:03.728Z,14.74
2023-05-10T07:42:30.463Z,14.75
2023-05-10T07:44:57.175Z,14.04
2023-05-10T07:47:24.432Z,14.25
2023-05-10T07:49:51.349Z,13.53
2023-05-10T07:52:18.083Z,13.47
2023-05-10T07:54:45.621Z,13.52
2023-05-10T07:57:12.377Z,13.69
2023-05-10T07:59:39.017Z,14.13
2023-05-10T08:02:05.920Z,14.36
2023-05-10T08:04:33.049Z,14.35
2023-05-10T08:06:59.891Z,14.71
2023-05-10T08:09:26.501Z,15.02
2023-05-10T08:11:53.194Z,14.96
2023-05-10T08:14:20.082Z,15.17
2023-05-10T08:16:46.743Z,15.01
2023-05-10T08:19:13.533Z,14.86
2023-05-10T08:21:41.462Z,14.62
2023-05-10T08:24:08.315Z,14.53
2023-05-10T08:26:34.939Z,14.01
2023-05-10T08:29:01.668Z,12.08
2023-05-10T08:31:28.399Z,11.25
2023-05-10T08:33:55.107Z,11.77
2023-05-10T08:36:22.951Z,11.88
2023-05-10T08:38:53.216Z,11.89
2023-05-10T08:41:25.499Z,11.99
2023-05-10T08:43:53.532Z,12.59
2023-05-10T08:46:21.568Z,12.45
2023-05-10T08:48:50.524Z,12.36
2023-05-10T08:51:20.186Z,12.51
2023-05-10T08:53:47.007Z,12.75
2023-05-10T08:56:14.193Z,12.78
2023-05-10T08:58:40.819Z,12.63
2023-05-10T09:01:08.337Z,12.61
2023-05-10T09:03:35.640Z,12.81
2023-05-10T09:06:02.328Z,12.93
2023-05-10T09:08:29.899Z,13.39
2023-05-10T09:10:56.571Z,13.18
2023-05-10T09:13:24.644Z,12.66
2023-05-10T09:15:52.963Z,12.87
2023-05-10T09:18:19.858Z,13.34
2023-05-10T09:20:46.919Z,13.44
2023-05-10T09:23:13.622Z,13.05
2023-05-10T09:25:42.550Z,12.75
2023-05-10T09:28:10.570Z,13.16
2023-05-10T09:30:37.648Z,13.73
2023-05-10T09:33:04.984Z,13.57
2023-05-10T09:35:34.001Z,13.90
2023-05-10T09:38:05.238Z,14.76
2023-05-10T09:40:32.451Z,15.16
2023-05-10T09:43:04.613Z,15.12
2023-05-10T09:45:36.199Z,15.02
2023-05-10T09:48:05.104Z,16.16
2023-05-10T09:50:32.113Z,16.54
2023-05-10T09:53:01.239Z,15.80
2023-05-10T09:55:37.165Z,15.98
2023-05-10T09:58:05.383Z,16.45
2023-05-10T10:00:39.894Z,15.88
2023-05-10T10:03:07.235Z,16.62
2023-05-10T10:05:35.927Z,16.97
2023-05-10T10:08:07.021Z,16.15
2023-05-10T10:10:34.647Z,16.55
2023-05-10T10:13:02.459Z,17.10
2023-05-10T10:15:29.416Z,17.13
2023-05-10T10:17:56.246Z,17.49
2023-05-10T10:20:23.849Z,16.42
2023-05-10T10:22:50.919Z,16.43
2023-05-10T10:25:19.676Z,17.16
2023-05-10T10:27:52.289Z,18.68
2023-05-10T10:30:30.929Z,18.81
2023-05-10T10:33:27.945Z,19.46
2023-05-10T10:35:58.921Z,19.58
2023-05-10T10:38:25.918Z,19.28
2023-05-10T10:41:29.473Z,18.91
2023-05-10T10:44:27.798Z,18.81
2023-05-10T10:47:13.063Z,19.55
2023-05-10T10:49:43.012Z,19.22
2023-05-10T10:52:18.752Z,18.98
2023-05-10T10:54:59.575Z,19.62
2023-05-10T10:57:27.620Z,19.85
2023-05-10T11:00:20.554Z,20.41
2023-05-10T11:02:52.396Z,20.44
2023-05-10T11:05:35.445Z,20.25
2023-05-10T11:08:11.985Z,19.51
2023-05-10T11:10:39.452Z,19.40
2023-05-10T11:13:08.149Z,17.93
2023-05-10T11:15:40.849Z,16.67
2023-05-10T11:18:22.195Z,16.03
2023-05-10T11:21:10.237Z,15.62
2023-05-10T11:23:57.471Z,15.15
2023-05-10T11:26:27.169Z,14.61
2023-05-10T11:28:56.343Z,14.42
2023-05-10T11:31:24.099Z,14.35
2023-05-10T11:33:53.554Z,14.36
2023-05-10T11:36:26.870Z,14.19
2023-05-10T11:38:54.449Z,14.47
2023-05-10T11:41:24.808Z,13.93
2023-05-10T11:43:55.422Z,14.36
2023-05-10T11:46:24.429Z,14.85
2023-05-10T11:48:53.084Z,14.83
2023-05-10T11:51:24.191Z,14.39
2023-05-10T11:53:53.512Z,13.73
2023-05-10T11:56:21.666Z,14.26
2023-05-10T11:58:55.346Z,13.32
2023-05-10T12:01:22.399Z,13.88
2023-05-10T12:03:51.091Z,13.67
2023-05-10T12:06:19.909Z,13.92
2023-05-10T12:08:48.490Z,14.03
2023-05-10T12:11:16.586Z,14.29
2023-05-10T12:13:48.447Z,14.89
2023-05-10T12:16:21.124Z,14.08
2023-05-10T12:18:52.194Z,14.33
2023-05-10T12:21:21.047Z,13.51
2023-05-10T12:23:50.809Z,14.22
2023-05-10T12:26:17.990Z,14.86
2023-05-10T12:28:45.384Z,12.85
2023-05-10T12:31:12.107Z,12.98
2023-05-10T12:33:42.605Z,12.55
2023-05-10T12:36:14.357Z,13.56
2023-05-10T12:38:44.326Z,14.83
2023-05-10T12:41:13.138Z,14.60
2023-05-10T12:43:40.827Z,14.32
2023-05-10T12:46:08.987Z,13.66
2023-05-10T12:48:36.850Z,13.91
2023-05-10T12:51:04.953Z,14.44
2023-05-10T12:53:32.024Z,15.31
2023-05-10T12:55:58.740Z,15.49
2023-05-10T12:58:34.826Z,13.93
2023-05-10T13:01:04.022Z,16.18
2023-05-10T13:03:31.446Z,17.04
2023-05-10T13:05:58.300Z,17.99
2023-05-10T13:08:25.083Z,18.02
2023-05-10T13:10:51.744Z,17.69
2023-05-10T13:13:19.230Z,17.56
2023-05-10T13:15:45.946Z,17.91
2023-05-10T13:18:12.697Z,18.62
2023-05-10T13:20:39.512Z,18.42
2023-05-10T13:23:06.233Z,17.52
2023-05-10T13:25:32.919Z,17.61
2023-05-10T13:27:59.573Z,17.62
2023-05-10T13:30:26.244Z,17.43
2023-05-10T13:32:53.033Z,17.79
2023-05-10T13:35:19.731Z,17.87
2023-05-10T13:37:46.482Z,17.89
2023-05-10T13:40:13.271Z,18.09
2023-05-10T13:42:40.647Z,17.80
2023-05-10T13:45:07.746Z,18.70
2023-05-10T13:47:34.481Z,19.10
2023-05-10T13:50:02.026Z,18.66
2023-05-10T13:52:28.688Z,17.19
2023-05-10T13:54:58.296Z,17.64
2023-05-10T13:57:25.095Z,17.89
2023-05-10T13:59:52.469Z,18.00
2023-05-10T14:02:19.084Z,17.55
2023-05-10T14:04:45.763Z,17.53
2023-05-10T14:07:12.369Z,16.96
2023-05-10T14:09:39.009Z,16.77
2023-05-10T14:12:05.847Z,16.85
2023-05-10T14:14:32.555Z,16.96
2023-05-10T14:17:00.316Z,16.95
2023-05-10T14:19:28.162Z,16.92
2023-05-10T14:21:54.804Z,16.89
2023-05-10T14:24:21.398Z,17.22
2023-05-10T14:26:48.079Z,16.79
2023-05-10T14:29:14.752Z,17.04
2023-05-10T14:31:41.960Z,17.12
2023-05-10T14:34:08.785Z,16.75
2023-05-10T14:36:35.421Z,16.42
2023-05-10T14:39:02.096Z,16.07
2023-05-10T14:41:28.960Z,16.05
2023-05-10T14:43:55.612Z,15.70
2023-05-10T14:46:22.362Z,15.55
2023-05-10T14:48:48.961Z,15.30
2023-05-10T14:51:15.543Z,15.03
2023-05-10T14:53:42.272Z,13.24
2023-05-10T14:56:08.882Z,13.47
2023-05-10T14:58:35.526Z,13.47
2023-05-10T15:01:02.219Z,13.55
2023-05-10T15:03:29.389Z,13.54
2023-05-10T15:05:58.530Z,13.92
2023-05-10T15:08:28.034Z,13.94
2023-05-10T15:10:56.639Z,14.41
2023-05-10T15:13:23.431Z,12.93
2023-05-10T15:15:50.213Z,12.46
2023-05-10T15:18:17.617Z,12.45
2023-05-10T15:20:44.314Z,12.94
2023-05-10T15:23:10.961Z,13.50
2023-05-10T15:25:38.501Z,12.75
2023-05-10T15:28:05.568Z,13.37
2023-05-10T15:30:32.338Z,13.98
2023-05-10T15:32:59.305Z,14.35
2023-05-10T15:35:27.765Z,14.86
2023-05-10T15:37:54.441Z,15.23
2023-05-10T15:40:21.137Z,15.60
2023-05-10T15:42:47.919Z,15.62
2023-05-10T15:45:16.306Z,15.60
2023-05-10T15:47:43.183Z,15.54
2023-05-10T15:50:10.606Z,15.55
2023-05-10T15:52:37.267Z,15.21
2023-05-10T15:55:04.250Z,14.65
2023-05-10T15:57:31.144Z,14.88
2023-05-10T15:59:58.244Z,15.08
2023-05-10T16:02:25.087Z,15.17
2023-05-10T16:04:51.945Z,15.19
2023-05-10T16:07:18.818Z,14.96
2023-05-10T16:09:45.844Z,14.93
2023-05-10T16:12:12.561Z,14.62
2023-05-10T16:14:39.233Z,14.35
2023-05-10T16:17:06.059Z,13.98
2023-05-10T16:19:32.983Z,13.92
2023-05-10T16:21:59.692Z,13.98
2023-05-10T16:24:26.429Z,13.88
2023-05-10T16:26:53.640Z,13.74
2023-05-10T16:29:20.314Z,13.96
2023-05-10T16:31:47.203Z,14.19
2023-05-10T16:34:13.980Z,14.26
2023-05-10T16:36:41.129Z,14.34
2023-05-10T16:39:09.725Z,14.38
2023-05-10T16:41:36.469Z,13.74
2023-05-10T16:44:03.743Z,13.69
2023-05-10T16:46:30.713Z,13.79
2023-05-10T16:48:57.665Z,13.57
2023-05-10T16:51:24.407Z,13.67
2023-05-10T16:53:51.048Z,13.48
2023-05-10T16:56:22.265Z,13.32
2023-05-10T16:58:51.715Z,13.32
2023-05-10T17:01:18.491Z,13.19
2023-05-10T17:03:45.456Z,13.29
2023-05-10T17:06:12.607Z,13.27
2023-05-10T17:08:39.356Z,13.51
2023-05-10T17:11:05.985Z,13.41
2023-05-10T17:13:32.658Z,13.57
2023-05-10T17:16:03.593Z,13.49
2023-05-10T17:18:30.686Z,13.57
2023-05-10T17:20:57.415Z,13.55
2023-05-10T17:23:24.118Z,13.31
2023-05-10T17:25:50.898Z,13.44
2023-05-10T17:28:17.661Z,13.38
2023-05-10T17:30:44.532Z,13.26
2023-05-10T17:33:11.341Z,13.26
2023-05-10T17:35:38.068Z,13.29
2023-05-10T17:38:04.779Z,13.33
2023-05-10T17:40:32.029Z,13.13
2023-05-10T17:42:58.805Z,13.06
2023-05-10T17:45:26.267Z,12.78
2023-05-10T17:47:53.356Z,12.68
2023-05-10T17:50:20.079Z,12.73
2023-05-10T17:52:46.727Z,12.54
2023-05-10T17:55:13.466Z,12.49
2023-05-10T17:57:40.114Z,12.32
2023-05-10T18:00:08.800Z,12.36
2023-05-10T18:02:36.888Z,12.09
2023-05-10T18:05:04.569Z,12.06
2023-05-10T18:07:31.503Z,12.22
2023-05-10T18:09:58.612Z,12.25
2023-05-10T18:12:25.229Z,12.21
2023-05-10T18:14:51.919Z,12.33
2023-05-10T18:17:18.752Z,12.33
2023-05-10T18:19:45.460Z,12.18
2023-05-10T18:22:12.681Z,12.09
2023-05-10T18:24:40.266Z,11.89
2023-05-10T18:27:08.885Z,11.96
2023-05-10T18:29:36.995Z,11.80
2023-05-10T18:32:03.914Z,11.23
2023-05-10T18:34:30.742Z,11.39
2023-05-10T18:36:57.695Z,11.27
2023-05-10T18:39:25.047Z,11.37
2023-05-10T18:41:51.900Z,11.52
2023-05-10T18:44:19.208Z,11.52
2023-05-10T18:46:46.428Z,11.17
2023-05-10T18:49:13.442Z,11.19
2023-05-10T18:51:40.151Z,11.25
2023-05-10T18:54:07.413Z,11.24
2023-05-10T18:56:34.231Z,11.23
2023-05-10T18:59:00.970Z,11.34
2023-05-10T19:01:27.838Z,11.40
2023-05-10T19:03:54.761Z,11.36
2023-05-10T19:06:21.538Z,11.23
2023-05-10T19:08:48.261Z,11.04
2023-05-10T19:11:14.896Z,11.16
2023-05-10T19:13:41.633Z,11.15
2023-05-10T19:16:14.280Z,11.23
2023-05-10T19:18:41.159Z,11.18
2023-05-10T19:21:09.839Z,11.08
2023-05-10T19:23:39.672Z,10.90
2023-05-10T19:26:06.398Z,10.87
2023-05-10T19:28:34.227Z,10.82
2023-05-10T19:31:01.774Z,10.73
2023-05-10T19:33:28.877Z,10.74
2023-05-10T19:35:55.758Z,10.65
2023-05-10T19:38:22.977Z,10.63
2023-05-10T19:40:57.934Z,10.65
2023-05-10T19:43:28.508Z,10.48
2023-05-10T19:45:59.088Z,10.48
2023-05-10T19:48:26.393Z,10.37
2023-05-10T19:50:53.968Z,10.20
2023-05-10T19:53:20.681Z,10.07
2023-05-10T19:55:47.576Z,10.16
2023-05-10T19:58:14.669Z,10.25
2023-05-10T20:00:41.389Z,10.26
2023-05-10T20:03:09.313Z,10.31
2023-05-10T20:05:36.202Z,10.36
2023-05-10T20:08:02.993Z,10.10
2023-05-10T20:10:29.834Z,10.13
2023-05-10T20:12:58.578Z,10.06
2023-05-10T20:15:25.385Z,10.09
2023-05-10T20:17:55.561Z,10.12
2023-05-10T20:20:22.478Z,10.05
2023-05-10T20:22:49.635Z,9.94
2023-05-10T20:25:17.707Z,9.99
2023-05-10T20:27:44.962Z,9.94
2023-05-10T20:30:12.112Z,9.84
2023-05-10T20:32:39.550Z,9.75
2023-05-10T20:35:07.126Z,9.82
2023-05-10T20:37:33.921Z,9.87
2023-05-10T20:40:00.648Z,9.79
2023-05-10T20:42:27.366Z,9.76
2023-05-10T20:44:54.112Z,9.81
2023-05-10T20:47:23.335Z,9.85
2023-05-10T20:49:50.382Z,9.83
2023-05-10T20:52:17.246Z,9.84
2023-05-10T20:54:43.988Z,9.81
2023-05-10T20:57:12.795Z,9.78
2023-05-10T20:59:39.463Z,9.70
2023-05-10T21:02:06.819Z,9.67
2023-05-10T21:04:33.566Z,9.66
2023-05-10T21:07:00.282Z,9.67
2023-05-10T21:09:26.892Z,9.65
2023-05-10T21:11:53.673Z,9.69
2023-05-10T21:14:20.558Z,9.71
2023-05-10T21:16:47.281Z,9.69
2023-05-10T21:19:13.905Z,9.66
2023-05-10T21:21:40.666Z,9.69
2023-05-10T21:24:08.530Z,9.66
2023-05-10T21:26:35.214Z,9.56
2023-05-10T21:29:02.648Z,9.59
2023-05-10T21:31:29.700Z,9.60
2023-05-10T21:33:57.108Z,9.55
2023-05-10T21:36:24.735Z,9.39
2023-05-10T21:38:51.502Z,9.38
2023-05-10T21:41:18.235Z,9.36
2023-05-10T21:43:44.933Z,9.31
2023-05-10T21:46:13.435Z,9.25
2023-05-10T21:48:40.243Z,9.27
2023-05-10T21:51:07.360Z,9.23
2023-05-10T21:53:35.871Z,9.15
2023-05-10T21:56:02.611Z,9.14
2023-05-10T21:58:29.306Z,9.03
2023-05-10T22:00:56.103Z,8.91
2023-05-10T22:03:22.963Z,8.97
2023-05-10T22:05:49.793Z,9.05
2023-05-10T22:08:16.488Z,9.10
2023-05-10T22:10:43.177Z,9.14
2023-05-10T22:13:09.808Z,9.12
2023-05-10T22:15:36.765Z,9.08
2023-05-10T22:18:03.686Z,9.12
2023-05-10T22:20:30.472Z,9.08
2023-05-10T22:22:57.356Z,9.12
2023-05-10T22:25:24.011Z,9.10
2023-05-10T22:27:50.730Z,9.00
2023-05-10T22:30:17.838Z,9.01
2023-05-10T22:32:44.945Z,9.05
2023-05-10T22:35:11.687Z,8.89
2023-05-10T22:37:38.386Z,8.93
2023-05-10T22:40:05.969Z,8.91
2023-05-10T22:42:33.199Z,8.94
2023-05-10T22:44:59.874Z,8.98
2023-05-10T22:47:26.576Z,8.96
2023-05-10T22:49:55.227Z,8.86
2023-05-10T22:52:21.905Z,8.84
2023-05-10T22:54:48.491Z,8.90
2023-05-10T22:57:16.060Z,8.94
2023-05-10T22:59:43.065Z,8.95
2023-05-10T23:02:10.044Z,8.95
2023-05-10T23:04:37.075Z,8.95
2023-05-10T23:07:03.745Z,8.88
2023-05-10T23:09:30.333Z,8.75
2023-05-10T23:11:57.400Z,8.77
2023-05-10T23:14:24.138Z,8.74
2023-05-10T23:16:50.874Z,8.72
2023-05-10T23:19:17.699Z,8.73
2023-05-10T23:21:44.328Z,8.66
2023-05-10T23:24:11.678Z,8.74
2023-05-10T23:26:38.339Z,8.78
2023-05-10T23:29:05.034Z,8.83
2023-05-10T23:31:31.745Z,8.86
2023-05-10T23:33:58.440Z,8.92
2023-05-10T23:36:25.075Z,8.89
2023-05-10T23:38:51.688Z,8.91
2023-05-10T23:41:18.405Z,8.99
2023-05-10T23:43:45.057Z,9.03
2023-05-10T23:46:11.793Z,8.92
2023-05-10T23:48:38.439Z,8.71
2023-05-10T23:51:05.194Z,8.69
2023-05-10T23:53:31.881Z,8.80
2023-05-10T23:55:58.599Z,8.78
2023-05-10T23:58:25.208Z,8.85
